createdAt,value
2023-01-13T00:01:18.627Z,77.81
2023-01-13T00:03:47.080Z,77.50
2023-01-13T00:06:17.950Z,77.26
2023-01-13T00:08:46.106Z,77.13
2023-01-13T00:11:13.939Z,77.47
2023-01-13T00:13:42.050Z,77.65
2023-01-13T00:16:13.339Z,77.44
2023-01-13T00:18:41.493Z,78.27
2023-01-13T00:21:12.885Z,78.28
2023-01-13T00:23:42.881Z,78.61
2023-01-13T00:26:12.087Z,79.20
2023-01-13T00:28:40.308Z,81.18
2023-01-13T00:31:09.522Z,81.49
2023-01-13T00:33:37.842Z,82.07
2023-01-13T00:36:07.207Z,82.13
2023-01-13T00:38:36.333Z,81.96
2023-01-13T00:41:07.480Z,82.26
2023-01-13T00:43:35.970Z,83.20
2023-01-13T00:46:04.581Z,82.51
2023-01-13T00:48:32.891Z,83.27
2023-01-13T00:51:02.691Z,83.17
2023-01-13T00:53:34.823Z,82.55
2023-01-13T00:56:03.314Z,82.46
2023-01-13T00:58:34.503Z,81.71
2023-01-13T01:01:03.074Z,81.26
2023-01-13T01:03:31.819Z,80.79
2023-01-13T01:06:05.706Z,81.15
2023-01-13T01:08:34.509Z,80.80
2023-01-13T01:11:03.605Z,80.38
2023-01-13T01:13:33.595Z,80.29
2023-01-13T01:16:06.663Z,80.25
2023-01-13T01:18:35.282Z,80.94
2023-01-13T01:21:03.774Z,81.34
2023-01-13T01:23:32.643Z,81.66
2023-01-13T01:26:01.059Z,81.67
2023-01-13T01:28:29.336Z,81.96
2023-01-13T01:30:59.764Z,82.06
2023-01-13T01:33:28.038Z,82.58
2023-01-13T01:35:56.020Z,82.32
2023-01-13T01:38:24.137Z,82.82
2023-01-13T01:40:51.993Z,82.51
2023-01-13T01:43:39.369Z,83.17
2023-01-13T01:46:08.664Z,83.69
2023-01-13T01:48:39.976Z,83.62
2023-01-13T01:51:10.961Z,83.91
2023-01-13T01:53:41.654Z,84.37
2023-01-13T01:56:10.113Z,84.41
2023-01-13T01:58:45.659Z,84.86
2023-01-13T02:01:15.350Z,85.70
2023-01-13T02:03:45.735Z,86.12
2023-01-13T02:06:14.751Z,86.13
2023-01-13T02:08:42.851Z,86.43
2023-01-13T02:11:42.999Z,86.89
2023-01-13T02:14:12.131Z,87.15
2023-01-13T02:16:53.142Z,87.75
2023-01-13T02:19:40.015Z,88.21
2023-01-13T02:22:26.975Z,87.27
2023-01-13T02:25:07.119Z,87.12
2023-01-13T02:27:58.982Z,87.13
2023-01-13T02:30:59.043Z,87.29
2023-01-13T02:33:45.272Z,87.26
2023-01-13T02:36:20.557Z,88.35
2023-01-13T02:38:52.280Z,88.90
2023-01-13T02:41:44.448Z,88.87
2023-01-13T02:44:13.393Z,88.48
2023-01-13T02:46:50.038Z,88.57
2023-01-13T02:49:23.174Z,88.26
2023-01-13T02:51:52.497Z,87.93
2023-01-13T02:54:23.556Z,88.22
2023-01-13T02:56:51.964Z,88.33
2023-01-13T02:59:20.627Z,88.05
2023-01-13T03:01:50.970Z,88.04
2023-01-13T03:04:46.769Z,87.64
2023-01-13T03:07:42.124Z,87.62
2023-01-13T03:10:12.794Z,87.29
2023-01-13T03:12:48.555Z,86.88
2023-01-13T03:15:20.415Z,87.07
2023-01-13T03:17:56.561Z,86.93
2023-01-13T03:20:27.548Z,87.25
2023-01-13T03:23:00.908Z,87.80
2023-01-13T03:25:30.585Z,88.56
2023-01-13T03:28:00.275Z,89.26
2023-01-13T03:30:32.459Z,89.40
2023-01-13T03:33:06.024Z,90.23
2023-01-13T03:35:37.194Z,90.60
2023-01-13T03:38:08.396Z,91.18
2023-01-13T03:40:39.077Z,90.56
2023-01-13T03:43:27.373Z,90.75
2023-01-13T03:45:59.087Z,90.69
2023-01-13T03:48:29.788Z,90.27
2023-01-13T03:51:03.373Z,89.99
2023-01-13T03:53:33.817Z,88.94
2023-01-13T03:56:10.533Z,89.19
2023-01-13T03:58:41.318Z,89.08
2023-01-13T04:01:15.309Z,88.68
2023-01-13T04:03:49.774Z,87.89
2023-01-13T04:06:24.962Z,87.23
2023-01-13T04:08:57.074Z,86.47
2023-01-13T04:11:30.472Z,86.12
2023-01-13T04:13:59.549Z,85.54
2023-01-13T04:16:27.672Z,85.80
2023-01-13T04:18:57.152Z,85.13
2023-01-13T04:21:25.111Z,84.92
2023-01-13T04:23:53.903Z,84.68
2023-01-13T04:26:23.381Z,84.43
2023-01-13T04:28:51.939Z,83.67
2023-01-13T04:31:19.959Z,83.56
2023-01-13T04:33:48.131Z,83.49
2023-01-13T04:36:18.143Z,83.10
2023-01-13T04:38:46.315Z,82.76
2023-01-13T04:41:14.211Z,82.63
2023-01-13T04:43:42.407Z,82.28
2023-01-13T04:46:10.350Z,82.60
2023-01-13T04:48:39.136Z,81.89
2023-01-13T04:51:07.205Z,81.23
2023-01-13T04:53:37.064Z,81.19
2023-01-13T04:56:05.326Z,80.63
2023-01-13T04:58:33.447Z,80.51
2023-01-13T05:01:01.354Z,80.83
2023-01-13T05:03:29.647Z,80.52
2023-01-13T05:05:57.507Z,80.35
2023-01-13T05:08:25.748Z,80.37
2023-01-13T05:10:54.977Z,80.25
2023-01-13T05:13:39.790Z,79.71
2023-01-13T05:16:28.156Z,80.21
2023-01-13T05:18:56.309Z,79.97
2023-01-13T05:21:41.873Z,79.49
2023-01-13T05:24:36.822Z,79.41
2023-01-13T05:27:06.237Z,79.66
2023-01-13T05:29:34.385Z,79.98
2023-01-13T05:32:02.577Z,80.20
2023-01-13T05:34:30.841Z,80.11
2023-01-13T05:36:58.747Z,80.26
2023-01-13T05:39:27.861Z,79.86
2023-01-13T05:42:13.454Z,80.18
2023-01-13T05:44:42.940Z,79.29
2023-01-13T05:47:11.492Z,79.50
2023-01-13T05:49:42.178Z,78.88
2023-01-13T05:52:10.205Z,79.42
2023-01-13T05:54:38.367Z,78.94
2023-01-13T05:57:06.254Z,79.39
2023-01-13T05:59:34.438Z,79.45
2023-01-13T06:02:03.682Z,79.31
2023-01-13T06:04:31.854Z,79.22
2023-01-13T06:06:59.821Z,79.08
2023-01-13T06:09:27.966Z,78.92
2023-01-13T06:11:55.879Z,78.86
2023-01-13T06:14:24.091Z,78.86
2023-01-13T06:16:52.028Z,78.21
2023-01-13T06:19:21.583Z,78.67
2023-01-13T06:21:49.526Z,78.79
2023-01-13T06:24:17.697Z,78.59
2023-01-13T06:26:45.757Z,78.90
2023-01-13T06:29:16.714Z,79.33
2023-01-13T06:31:44.852Z,80.69
2023-01-13T06:34:14.850Z,81.80
2023-01-13T06:36:46.604Z,83.72
2023-01-13T06:39:17.752Z,84.47
2023-01-13T06:42:04.030Z,85.97
2023-01-13T06:44:32.164Z,86.32
2023-01-13T06:47:00.102Z,86.86
2023-01-13T06:49:28.271Z,87.34
2023-01-13T06:51:57.490Z,88.66
2023-01-13T06:54:27.673Z,88.81
2023-01-13T06:56:55.795Z,89.74
2023-01-13T06:59:25.111Z,91.04
2023-01-13T07:01:53.152Z,91.98
2023-01-13T07:04:21.433Z,91.80
2023-01-13T07:06:49.475Z,92.87
2023-01-13T07:09:19.023Z,92.57
2023-01-13T07:11:46.960Z,91.61
2023-01-13T07:14:32.921Z,92.80
2023-01-13T07:17:00.801Z,91.93
2023-01-13T07:19:28.945Z,92.51
2023-01-13T07:21:56.905Z,93.67
2023-01-13T07:24:26.566Z,93.56
2023-01-13T07:26:54.481Z,93.67
2023-01-13T07:29:22.660Z,94.81
2023-01-13T07:31:50.938Z,97.13
2023-01-13T07:34:19.723Z,97.63
2023-01-13T07:36:47.733Z,98.03
2023-01-13T07:39:15.953Z,99.25
2023-01-13T07:42:02.713Z,99.32
2023-01-13T07:44:30.921Z,98.49
2023-01-13T07:46:58.886Z,94.70
2023-01-13T07:49:27.119Z,93.12
2023-01-13T07:51:55.214Z,90.76
2023-01-13T07:54:35.076Z,86.38
2023-01-13T07:57:08.828Z,83.99
2023-01-13T07:59:37.041Z,84.19
2023-01-13T08:02:05.304Z,85.33
2023-01-13T08:04:34.990Z,86.82
2023-01-13T08:07:02.898Z,85.46
2023-01-13T08:09:31.224Z,85.24
2023-01-13T08:12:13.172Z,85.82
2023-01-13T08:14:43.021Z,86.99
2023-01-13T08:17:11.752Z,86.98
2023-01-13T08:19:39.904Z,83.76
2023-01-13T08:22:07.809Z,81.82
2023-01-13T08:24:35.948Z,80.93
2023-01-13T08:27:03.906Z,80.15
2023-01-13T08:29:32.034Z,81.15
2023-01-13T08:32:01.455Z,79.79
2023-01-13T08:34:29.783Z,78.14
2023-01-13T08:36:57.752Z,77.35
2023-01-13T08:39:26.195Z,77.31
2023-01-13T08:41:58.262Z,77.14
2023-01-13T08:44:27.602Z,77.70
2023-01-13T08:46:56.045Z,77.08
2023-01-13T08:49:26.511Z,78.30
2023-01-13T08:51:54.857Z,78.91
2023-01-13T08:54:23.052Z,79.68
2023-01-13T08:56:51.115Z,80.53
2023-01-13T08:59:20.957Z,81.21
2023-01-13T09:01:49.169Z,80.96
2023-01-13T09:04:19.783Z,80.47
2023-01-13T09:06:49.591Z,79.55
2023-01-13T09:09:17.807Z,79.00
2023-01-13T09:12:08.660Z,79.43
2023-01-13T09:14:38.744Z,79.22
2023-01-13T09:17:07.296Z,78.45
2023-01-13T09:19:35.836Z,79.29
2023-01-13T09:22:05.154Z,79.90
2023-01-13T09:24:33.545Z,80.25
2023-01-13T09:27:01.578Z,80.80
2023-01-13T09:29:29.824Z,81.40
2023-01-13T09:31:58.214Z,82.45
2023-01-13T09:34:44.577Z,82.96
2023-01-13T09:37:14.046Z,84.24
2023-01-13T09:39:42.231Z,83.95
2023-01-13T09:42:33.868Z,83.85
2023-01-13T09:45:05.767Z,83.75
2023-01-13T09:47:38.424Z,82.94
2023-01-13T09:50:16.648Z,82.46
2023-01-13T09:52:46.098Z,82.28
2023-01-13T09:55:17.100Z,82.49
2023-01-13T09:57:45.110Z,81.82
2023-01-13T10:00:15.249Z,82.03
2023-01-13T10:02:58.811Z,81.79
2023-01-13T10:05:33.422Z,81.66
2023-01-13T10:08:08.867Z,82.38
2023-01-13T10:10:39.863Z,82.04
2023-01-13T10:13:20.055Z,80.58
2023-01-13T10:16:06.276Z,80.50
2023-01-13T10:18:41.012Z,80.16
2023-01-13T10:21:21.120Z,79.99
2023-01-13T10:23:59.381Z,80.12
2023-01-13T10:26:38.547Z,81.28
2023-01-13T10:29:19.750Z,80.08
2023-01-13T10:31:47.969Z,81.90
2023-01-13T10:34:17.012Z,79.88
2023-01-13T10:36:57.725Z,80.24
2023-01-13T10:39:28.791Z,80.53
2023-01-13T10:42:04.375Z,81.32
2023-01-13T10:44:32.294Z,81.28
2023-01-13T10:47:00.621Z,81.30
2023-01-13T10:49:32.719Z,80.59
2023-01-13T10:52:02.063Z,81.24
2023-01-13T10:54:32.823Z,80.12
2023-01-13T10:57:15.363Z,80.69
2023-01-13T10:59:43.372Z,80.81
2023-01-13T11:02:25.636Z,82.25
2023-01-13T11:05:03.033Z,83.09
2023-01-13T11:07:34.311Z,80.99
2023-01-13T11:10:19.096Z,78.04
2023-01-13T11:12:52.684Z,68.51
2023-01-13T11:15:22.655Z,69.97
2023-01-13T11:18:00.523Z,68.03
2023-01-13T11:20:33.652Z,67.06
2023-01-13T11:23:04.366Z,65.72
2023-01-13T11:25:42.293Z,65.90
2023-01-13T11:28:34.795Z,64.70
2023-01-13T11:31:09.166Z,64.89
2023-01-13T11:33:41.629Z,64.94
2023-01-13T11:36:13.560Z,63.14
2023-01-13T11:38:47.717Z,63.15
2023-01-13T11:41:24.717Z,62.64
2023-01-13T11:43:56.373Z,58.29
2023-01-13T11:46:27.564Z,56.50
2023-01-13T11:48:57.297Z,54.63
2023-01-13T11:51:36.863Z,53.09
2023-01-13T11:54:32.918Z,51.27
2023-01-13T11:57:17.171Z,51.59
2023-01-13T11:59:54.635Z,52.08
2023-01-13T12:02:33.271Z,53.57
2023-01-13T12:05:11.879Z,54.12
2023-01-13T12:07:45.446Z,55.00
2023-01-13T12:10:18.593Z,55.20
2023-01-13T12:12:54.570Z,55.53
2023-01-13T12:15:37.249Z,56.84
2023-01-13T12:18:22.843Z,58.11
2023-01-13T12:21:02.212Z,57.68
2023-01-13T12:23:34.844Z,59.15
2023-01-13T12:26:08.689Z,61.33
2023-01-13T12:28:43.950Z,61.43
2023-01-13T12:31:12.579Z,62.54
2023-01-13T12:33:48.826Z,66.16
2023-01-13T12:36:23.386Z,70.37
2023-01-13T12:38:56.832Z,70.62
2023-01-13T12:41:34.712Z,71.32
2023-01-13T12:44:20.185Z,71.98
2023-01-13T12:46:56.999Z,67.84
2023-01-13T12:49:28.573Z,66.13
2023-01-13T12:52:18.411Z,63.27
2023-01-13T12:55:14.927Z,57.19
2023-01-13T12:58:11.719Z,58.58
2023-01-13T13:00:55.516Z,60.37
2023-01-13T13:03:34.890Z,59.75
2023-01-13T13:06:11.506Z,58.63
2023-01-13T13:08:47.433Z,56.08
2023-01-13T13:11:39.763Z,54.15
2023-01-13T13:14:12.314Z,50.84
2023-01-13T13:16:49.548Z,51.10
2023-01-13T13:19:42.313Z,51.31
2023-01-13T13:22:38.486Z,48.37
2023-01-13T13:25:25.469Z,48.78
2023-01-13T13:28:17.808Z,48.33
2023-01-13T13:30:52.785Z,52.38
2023-01-13T13:33:40.129Z,52.05
2023-01-13T13:36:19.135Z,54.32
2023-01-13T13:39:27.362Z,55.55
2023-01-13T13:42:20.395Z,57.70
2023-01-13T13:45:06.840Z,59.79
2023-01-13T13:47:39.312Z,60.28
2023-01-13T13:50:13.095Z,60.43
2023-01-13T13:52:43.197Z,59.41
2023-01-13T13:55:18.591Z,61.67
2023-01-13T13:57:48.790Z,62.12
2023-01-13T14:00:24.087Z,62.16
2023-01-13T14:02:54.181Z,62.71
2023-01-13T14:05:25.398Z,63.07
2023-01-13T14:07:59.938Z,62.79
2023-01-13T14:10:32.578Z,63.95
2023-01-13T14:13:03.456Z,64.31
2023-01-13T14:15:34.582Z,65.54
2023-01-13T14:18:05.443Z,67.06
2023-01-13T14:20:36.815Z,67.82
2023-01-13T14:23:06.047Z,71.53
2023-01-13T14:25:39.413Z,75.18
2023-01-13T14:28:20.021Z,76.34
2023-01-13T14:30:49.821Z,70.88
2023-01-13T14:33:19.827Z,66.52
2023-01-13T14:36:09.137Z,66.13
2023-01-13T14:38:37.395Z,62.00
2023-01-13T14:41:13.411Z,61.08
2023-01-13T14:43:44.221Z,60.36
2023-01-13T14:46:12.508Z,60.40
2023-01-13T14:48:44.111Z,61.47
2023-01-13T14:51:21.456Z,61.81
2023-01-13T14:53:49.825Z,61.20
2023-01-13T14:56:41.976Z,61.15
2023-01-13T14:59:32.743Z,60.88
2023-01-13T15:02:00.973Z,60.24
2023-01-13T15:04:34.161Z,60.65
2023-01-13T15:07:04.116Z,61.18
2023-01-13T15:09:40.124Z,61.52
2023-01-13T15:12:17.623Z,60.48
2023-01-13T15:14:50.516Z,61.50
2023-01-13T15:17:18.899Z,63.92
2023-01-13T15:19:47.140Z,65.41
2023-01-13T15:22:16.483Z,67.44
2023-01-13T15:24:44.816Z,69.48
2023-01-13T15:27:18.800Z,68.75
2023-01-13T15:29:47.050Z,68.81
2023-01-13T15:32:19.682Z,69.04
2023-01-13T15:34:48.839Z,68.65
2023-01-13T15:37:19.354Z,70.62
2023-01-13T15:39:47.858Z,71.00
2023-01-13T15:42:33.633Z,71.87
2023-01-13T15:45:19.609Z,70.31
2023-01-13T15:47:48.239Z,71.96
2023-01-13T15:50:20.713Z,72.25
2023-01-13T15:52:50.116Z,72.80
2023-01-13T15:55:18.370Z,75.98
2023-01-13T15:57:47.354Z,75.19
2023-01-13T16:00:17.766Z,75.04
2023-01-13T16:02:45.761Z,70.17
2023-01-13T16:05:14.109Z,70.47
2023-01-13T16:07:42.436Z,70.57
2023-01-13T16:10:17.547Z,66.55
2023-01-13T16:12:45.580Z,65.83
2023-01-13T16:15:15.424Z,65.83
2023-01-13T16:17:44.458Z,66.16
2023-01-13T16:20:16.759Z,66.59
2023-01-13T16:22:45.229Z,66.83
2023-01-13T16:25:18.581Z,68.29
2023-01-13T16:27:47.127Z,68.71
2023-01-13T16:30:28.743Z,69.06
2023-01-13T16:32:57.123Z,68.13
2023-01-13T16:35:25.790Z,67.72
2023-01-13T16:37:54.985Z,66.70
2023-01-13T16:40:26.762Z,67.11
2023-01-13T16:42:54.918Z,68.01
2023-01-13T16:45:23.125Z,68.66
2023-01-13T16:47:51.274Z,69.39
2023-01-13T16:50:31.830Z,67.65
2023-01-13T16:52:59.839Z,67.19
2023-01-13T16:55:29.436Z,67.31
2023-01-13T16:57:57.618Z,67.93
2023-01-13T17:00:26.316Z,67.40
2023-01-13T17:02:54.600Z,66.67
2023-01-13T17:05:22.885Z,66.66
2023-01-13T17:07:50.934Z,67.43
2023-01-13T17:10:21.393Z,67.64
2023-01-13T17:12:50.795Z,68.29
2023-01-13T17:15:20.542Z,67.83
2023-01-13T17:17:51.758Z,67.61
2023-01-13T17:20:20.601Z,66.92
2023-01-13T17:22:57.666Z,66.79
2023-01-13T17:25:26.365Z,65.70
2023-01-13T17:27:55.682Z,65.03
2023-01-13T17:30:23.931Z,65.17
2023-01-13T17:32:51.969Z,64.98
2023-01-13T17:35:24.489Z,65.19
2023-01-13T17:37:52.552Z,64.41
2023-01-13T17:40:20.938Z,64.39
2023-01-13T17:42:48.946Z,63.97
2023-01-13T17:45:18.942Z,65.10
2023-01-13T17:47:47.560Z,65.20
2023-01-13T17:50:17.124Z,64.93
2023-01-13T17:52:45.135Z,64.10
2023-01-13T17:55:13.455Z,64.99
2023-01-13T17:57:41.493Z,65.89
2023-01-13T18:00:12.062Z,65.28
2023-01-13T18:02:44.267Z,65.10
2023-01-13T18:05:12.686Z,65.11
2023-01-13T18:07:40.742Z,66.02
2023-01-13T18:10:10.663Z,66.76
2023-01-13T18:12:38.957Z,66.77
2023-01-13T18:15:08.582Z,66.53
2023-01-13T18:17:36.612Z,66.62
2023-01-13T18:20:24.340Z,66.19
2023-01-13T18:23:10.042Z,66.06
2023-01-13T18:25:57.784Z,67.13
2023-01-13T18:28:25.793Z,66.25
2023-01-13T18:30:54.052Z,66.46
2023-01-13T18:33:22.043Z,66.75
2023-01-13T18:35:51.843Z,67.46
2023-01-13T18:38:20.023Z,67.41
2023-01-13T18:40:48.279Z,68.08
2023-01-13T18:43:15.332Z,68.47
2023-01-13T18:45:44.780Z,68.75
2023-01-13T18:48:12.830Z,69.45
2023-01-13T18:50:41.061Z,69.47
2023-01-13T18:53:10.425Z,70.49
2023-01-13T18:55:38.767Z,69.81
2023-01-13T18:58:06.845Z,69.88
2023-01-13T19:00:37.341Z,70.28
2023-01-13T19:05:36.044Z,69.61
2023-01-13T19:08:04.725Z,69.96
2023-01-13T19:10:34.518Z,70.52
2023-01-13T19:13:02.661Z,70.85
2023-01-13T19:15:31.100Z,70.32
2023-01-13T19:17:59.187Z,70.43
2023-01-13T19:20:27.454Z,72.42
2023-01-13T19:22:55.509Z,72.54
2023-01-13T19:25:23.787Z,72.23
2023-01-13T19:27:53.216Z,71.53
2023-01-13T19:30:21.731Z,71.53
2023-01-13T19:32:49.823Z,71.95
2023-01-13T19:35:19.864Z,72.27
2023-01-13T19:37:47.958Z,72.31
2023-01-13T19:40:16.759Z,73.06
2023-01-13T19:43:02.556Z,73.47
2023-01-13T19:45:35.090Z,73.12
2023-01-13T19:48:05.238Z,73.31
2023-01-13T19:50:37.229Z,73.44
2023-01-13T19:53:05.410Z,74.18
2023-01-13T19:55:33.641Z,74.40
2023-01-13T19:58:02.745Z,75.04
2023-01-13T20:00:32.452Z,76.78
2023-01-13T20:03:03.330Z,76.67
2023-01-13T20:05:31.788Z,76.53
2023-01-13T20:07:59.840Z,76.60
2023-01-13T20:10:30.328Z,75.96
2023-01-13T20:12:58.346Z,76.56
2023-01-13T20:15:26.598Z,76.16
2023-01-13T20:17:57.237Z,77.10
2023-01-13T20:20:27.250Z,76.42
2023-01-13T20:22:55.242Z,77.32
2023-01-13T20:25:23.519Z,77.19
2023-01-13T20:27:51.773Z,77.16
2023-01-13T20:30:20.036Z,77.75
2023-01-13T20:32:48.034Z,77.68
2023-01-13T20:35:18.285Z,78.29
2023-01-13T20:37:46.296Z,78.16
2023-01-13T20:40:17.768Z,78.39
2023-01-13T20:42:45.171Z,78.52
2023-01-13T20:45:16.809Z,78.77
2023-01-13T20:47:45.819Z,79.78
2023-01-13T20:50:14.936Z,80.04
2023-01-13T20:52:44.686Z,80.26
2023-01-13T20:55:13.312Z,79.70
2023-01-13T20:57:41.693Z,79.85
2023-01-13T21:00:11.389Z,79.50
2023-01-13T21:02:41.442Z,79.64
2023-01-13T21:05:10.062Z,78.98
2023-01-13T21:07:38.106Z,78.81
2023-01-13T21:10:11.201Z,79.25
2023-01-13T21:12:56.673Z,77.94
2023-01-13T21:15:25.761Z,76.46
2023-01-13T21:18:11.241Z,77.62
2023-01-13T21:20:39.967Z,77.03
2023-01-13T21:23:10.495Z,77.76
2023-01-13T21:25:40.424Z,78.33
2023-01-13T21:28:13.375Z,78.81
2023-01-13T21:30:41.668Z,78.86
2023-01-13T21:33:13.909Z,77.94
2023-01-13T21:35:42.589Z,77.81
2023-01-13T21:38:12.179Z,78.04
2023-01-13T21:40:41.887Z,77.99
2023-01-13T21:43:30.411Z,77.99
2023-01-13T21:46:16.274Z,77.21
2023-01-13T21:48:44.250Z,77.62
2023-01-13T21:51:12.673Z,77.18
2023-01-13T21:53:40.636Z,76.17
2023-01-13T21:56:10.207Z,75.01
2023-01-13T21:58:39.732Z,74.34
2023-01-13T22:01:09.679Z,73.83
2023-01-13T22:03:54.565Z,74.44
2023-01-13T22:06:22.928Z,73.85
2023-01-13T22:08:50.938Z,73.28
2023-01-13T22:11:20.625Z,73.75
2023-01-13T22:14:07.078Z,74.25
2023-01-13T22:16:38.979Z,75.00
2023-01-13T22:19:08.421Z,74.80
2023-01-13T22:21:36.923Z,73.74
2023-01-13T22:24:05.272Z,73.42
2023-01-13T22:26:35.186Z,73.97
2023-01-13T22:29:03.199Z,73.44
2023-01-13T22:31:31.779Z,72.29
2023-01-13T22:33:59.777Z,71.84
2023-01-13T22:36:28.109Z,71.82
2023-01-13T22:38:56.798Z,71.92
2023-01-13T22:41:25.093Z,71.84
2023-01-13T22:43:54.476Z,70.90
2023-01-13T22:46:23.537Z,70.54
2023-01-13T22:48:53.773Z,70.53
2023-01-13T22:51:23.627Z,70.25
2023-01-13T22:53:52.069Z,70.67
2023-01-13T22:56:22.065Z,71.24
2023-01-13T22:58:55.325Z,71.57
2023-01-13T23:01:24.760Z,72.08
2023-01-13T23:03:53.088Z,72.50
2023-01-13T23:06:22.243Z,72.72
2023-01-13T23:08:50.549Z,72.76
2023-01-13T23:11:19.881Z,71.54
2023-01-13T23:13:48.040Z,72.13
2023-01-13T23:16:20.845Z,73.25
2023-01-13T23:18:49.056Z,73.90
2023-01-13T23:21:19.085Z,75.47
2023-01-13T23:23:47.287Z,77.68
2023-01-13T23:26:16.069Z,79.32
2023-01-13T23:28:44.337Z,80.35
2023-01-13T23:31:18.616Z,81.51
2023-01-13T23:33:46.918Z,82.11
2023-01-13T23:36:16.933Z,81.63
2023-01-13T23:38:45.188Z,81.13
2023-01-13T23:41:15.831Z,79.94
2023-01-13T23:43:43.917Z,79.53
2023-01-13T23:46:13.895Z,79.23
2023-01-13T23:48:43.442Z,78.95
2023-01-13T23:51:13.406Z,79.04
2023-01-13T23:53:44.572Z,78.72
2023-01-13T23:56:14.631Z,78.21
2023-01-13T23:58:43.317Z,77.78
